sensor_id;sensor_type;location;lat;lon;timestamp;pressure;altitude;pressure_sealevel;temperature
11926;BMP180;6022;48.768;18.608;2023-02-04T00:01:20;97923.19;;;2.78
11926;BMP180;6022;48.768;18.608;2023-02-04T00:03:48;97912.47;;;2.75
11926;BMP180;6022;48.768;18.608;2023-02-04T00:06:15;97903.34;;;2.74
11926;BMP180;6022;48.768;18.608;2023-02-04T00:08:43;97909.09;;;2.76
11926;BMP180;6022;48.768;18.608;2023-02-04T00:11:10;97904.16;;;2.74
11926;BMP180;6022;48.768;18.608;2023-02-04T00:13:37;97913.31;;;2.75
11926;BMP180;6022;48.768;18.608;2023-02-04T00:16:05;97921.47;;;2.79
11926;BMP180;6022;48.768;18.608;2023-02-04T00:18:38;97908.34;;;2.74
11926;BMP180;6022;48.768;18.608;2023-02-04T00:21:12;97909.31;;;2.71
11926;BMP180;6022;48.768;18.608;2023-02-04T00:23:50;97916.13;;;2.68
11926;BMP180;6022;48.768;18.608;2023-02-04T00:26:36;97901.09;;;2.68
11926;BMP180;6022;48.768;18.608;2023-02-04T00:29:19;97914.44;;;2.68
11926;BMP180;6022;48.768;18.608;2023-02-04T00:32:06;97914.38;;;2.70
11926;BMP180;6022;48.768;18.608;2023-02-04T00:34:36;97908.63;;;2.68
11926;BMP180;6022;48.768;18.608;2023-02-04T00:37:08;97906.53;;;2.58
11926;BMP180;6022;48.768;18.608;2023-02-04T00:39:44;97920.59;;;2.60
11926;BMP180;6022;48.768;18.608;2023-02-04T00:42:14;97926.44;;;2.61
11926;BMP180;6022;48.768;18.608;2023-02-04T00:44:42;97919.09;;;2.56
11926;BMP180;6022;48.768;18.608;2023-02-04T00:47:10;97924.78;;;2.60
11926;BMP180;6022;48.768;18.608;2023-02-04T00:49:42;97907.47;;;2.55
11926;BMP180;6022;48.768;18.608;2023-02-04T00:52:16;97910.72;;;2.57
11926;BMP180;6022;48.768;18.608;2023-02-04T00:54:46;97913.47;;;2.51
11926;BMP180;6022;48.768;18.608;2023-02-04T00:57:20;97903.53;;;2.50
11926;BMP180;6022;48.768;18.608;2023-02-04T00:59:48;97910.97;;;2.51
11926;BMP180;6022;48.768;18.608;2023-02-04T01:02:37;97909.31;;;2.50
11926;BMP180;6022;48.768;18.608;2023-02-04T01:05:09;97913.47;;;2.51
11926;BMP180;6022;48.768;18.608;2023-02-04T01:07:44;97900.22;;;2.49
11926;BMP180;6022;48.768;18.608;2023-02-04T01:10:12;97905.91;;;2.53
11926;BMP180;6022;48.768;18.608;2023-02-04T01:12:42;97901.66;;;2.55
11926;BMP180;6022;48.768;18.608;2023-02-04T01:15:10;97904.81;;;2.58
11926;BMP180;6022;48.768;18.608;2023-02-04T01:17:40;97900.72;;;2.57
11926;BMP180;6022;48.768;18.608;2023-02-04T01:20:09;97895.56;;;2.60
11926;BMP180;6022;48.768;18.608;2023-02-04T01:22:37;97891.34;;;2.62
11926;BMP180;6022;48.768;18.608;2023-02-04T01:25:04;97880.44;;;2.63
11926;BMP180;6022;48.768;18.608;2023-02-04T01:27:32;97872.13;;;2.63
11926;BMP180;6022;48.768;18.608;2023-02-04T01:30:18;97873.66;;;2.65
11926;BMP180;6022;48.768;18.608;2023-02-04T01:32:46;97872.81;;;2.66
11926;BMP180;6022;48.768;18.608;2023-02-04T01:35:15;97865.16;;;2.69
11926;BMP180;6022;48.768;18.608;2023-02-04T01:37:43;97866.06;;;2.68
11926;BMP180;6022;48.768;18.608;2023-02-04T01:40:11;97854.34;;;2.68
11926;BMP180;6022;48.768;18.608;2023-02-04T01:42:39;97859.28;;;2.70
11926;BMP180;6022;48.768;18.608;2023-02-04T01:45:07;97863.28;;;2.74
11926;BMP180;6022;48.768;18.608;2023-02-04T01:47:35;97862.53;;;2.72
11926;BMP180;6022;48.768;18.608;2023-02-04T01:50:03;97855.03;;;2.72
11926;BMP180;6022;48.768;18.608;2023-02-04T01:52:36;97850.03;;;2.72
11926;BMP180;6022;48.768;18.608;2023-02-04T01:55:12;97854.13;;;2.73
11926;BMP180;6022;48.768;18.608;2023-02-04T01:57:40;97846.50;;;2.76
11926;BMP180;6022;48.768;18.608;2023-02-04T02:00:20;97843.25;;;2.74
11926;BMP180;6022;48.768;18.608;2023-02-04T02:02:51;97845.81;;;2.72
11926;BMP180;6022;48.768;18.608;2023-02-04T02:05:26;97845.81;;;2.72
11926;BMP180;6022;48.768;18.608;2023-02-04T02:07:57;97846.72;;;2.71
11926;BMP180;6022;48.768;18.608;2023-02-04T02:10:27;97840.00;;;2.72
11926;BMP180;6022;48.768;18.608;2023-02-04T02:12:56;97834.84;;;2.75
11926;BMP180;6022;48.768;18.608;2023-02-04T02:15:25;97833.09;;;2.77
11926;BMP180;6022;48.768;18.608;2023-02-04T02:17:54;97831.47;;;2.76
11926;BMP180;6022;48.768;18.608;2023-02-04T02:20:24;97818.81;;;2.79
11926;BMP180;6022;48.768;18.608;2023-02-04T02:23:22;97833.19;;;2.75
11926;BMP180;6022;48.768;18.608;2023-02-04T02:25:50;97826.47;;;2.76
11926;BMP180;6022;48.768;18.608;2023-02-04T02:28:21;97821.31;;;2.79
11926;BMP180;6022;48.768;18.608;2023-02-04T02:30:50;97812.19;;;2.78
11926;BMP180;6022;48.768;18.608;2023-02-04T02:33:19;97810.50;;;2.78
11926;BMP180;6022;48.768;18.608;2023-02-04T02:35:47;97820.41;;;2.81
11926;BMP180;6022;48.768;18.608;2023-02-04T02:38:17;97807.94;;;2.80
11926;BMP180;6022;48.768;18.608;2023-02-04T02:40:47;97808.81;;;2.79
11926;BMP180;6022;48.768;18.608;2023-02-04T02:43:20;97794.78;;;2.75
11926;BMP180;6022;48.768;18.608;2023-02-04T02:45:49;97795.75;;;2.72
11926;BMP180;6022;48.768;18.608;2023-02-04T02:48:17;97805.69;;;2.74
11926;BMP180;6022;48.768;18.608;2023-02-04T02:50:46;97799.69;;;2.78
11926;BMP180;6022;48.768;18.608;2023-02-04T02:53:17;97798.03;;;2.77
11926;BMP180;6022;48.768;18.608;2023-02-04T02:55:46;97792.38;;;2.73
11926;BMP180;6022;48.768;18.608;2023-02-04T02:58:25;97794.19;;;2.70
11926;BMP180;6022;48.768;18.608;2023-02-04T03:00:55;97802.50;;;2.70
11926;BMP180;6022;48.768;18.608;2023-02-04T03:03:26;97793.56;;;2.65
11926;BMP180;6022;48.768;18.608;2023-02-04T03:06:06;97783.56;;;2.65
11926;BMP180;6022;48.768;18.608;2023-02-04T03:08:35;97783.59;;;2.63
11926;BMP180;6022;48.768;18.608;2023-02-04T03:11:03;97782.16;;;2.58
11926;BMP180;6022;48.768;18.608;2023-02-04T03:13:31;97788.00;;;2.59
11926;BMP180;6022;48.768;18.608;2023-02-04T03:16:00;97788.69;;;2.62
11926;BMP180;6022;48.768;18.608;2023-02-04T03:18:28;97787.06;;;2.61
11926;BMP180;6022;48.768;18.608;2023-02-04T03:20:57;97788.81;;;2.59
11926;BMP180;6022;48.768;18.608;2023-02-04T03:23:25;97791.31;;;2.59
11926;BMP180;6022;48.768;18.608;2023-02-04T03:25:53;97787.19;;;2.58
11926;BMP180;6022;48.768;18.608;2023-02-04T03:28:20;97781.44;;;2.56
11926;BMP180;6022;48.768;18.608;2023-02-04T03:30:48;97778.00;;;2.59
11926;BMP180;6022;48.768;18.608;2023-02-04T03:33:26;97774.81;;;2.55
11926;BMP180;6022;48.768;18.608;2023-02-04T03:35:58;97773.16;;;2.54
11926;BMP180;6022;48.768;18.608;2023-02-04T03:38:26;97761.41;;;2.56
11926;BMP180;6022;48.768;18.608;2023-02-04T03:40:54;97752.41;;;2.52
11926;BMP180;6022;48.768;18.608;2023-02-04T03:43:21;97754.97;;;2.51
11926;BMP180;6022;48.768;18.608;2023-02-04T03:45:49;97764.16;;;2.50
11926;BMP180;6022;48.768;18.608;2023-02-04T03:48:16;97758.31;;;2.51
11926;BMP180;6022;48.768;18.608;2023-02-04T03:50:44;97762.56;;;2.49
11926;BMP180;6022;48.768;18.608;2023-02-04T03:53:12;97756.66;;;2.50
11926;BMP180;6022;48.768;18.608;2023-02-04T03:55:39;97771.69;;;2.50
11926;BMP180;6022;48.768;18.608;2023-02-04T03:58:10;97787.59;;;2.49
11926;BMP180;6022;48.768;18.608;2023-02-04T04:00:37;97797.50;;;2.51
11926;BMP180;6022;48.768;18.608;2023-02-04T04:03:07;97805.97;;;2.48
11926;BMP180;6022;48.768;18.608;2023-02-04T04:05:35;97826.00;;;2.48
11926;BMP180;6022;48.768;18.608;2023-02-04T04:08:02;97828.53;;;2.47
11926;BMP180;6022;48.768;18.608;2023-02-04T04:10:30;97837.19;;;2.40
11926;BMP180;6022;48.768;18.608;2023-02-04T04:12:58;97837.38;;;2.35
11926;BMP180;6022;48.768;18.608;2023-02-04T04:15:25;97830.00;;;2.32
11926;BMP180;6022;48.768;18.608;2023-02-04T04:17:53;97837.56;;;2.31
11926;BMP180;6022;48.768;18.608;2023-02-04T04:20:20;97851.63;;;2.33
11926;BMP180;6022;48.768;18.608;2023-02-04T04:22:51;97839.19;;;2.32
11926;BMP180;6022;48.768;18.608;2023-02-04T04:25:19;97843.13;;;2.37
11926;BMP180;6022;48.768;18.608;2023-02-04T04:27:46;97870.91;;;2.31
11926;BMP180;6022;48.768;18.608;2023-02-04T04:30:14;97870.03;;;2.32
11926;BMP180;6022;48.768;18.608;2023-02-04T04:32:41;97874.84;;;2.37
11926;BMP180;6022;48.768;18.608;2023-02-04T04:35:10;97879.84;;;2.37
11926;BMP180;6022;48.768;18.608;2023-02-04T04:37:37;97880.28;;;2.26
11926;BMP180;6022;48.768;18.608;2023-02-04T04:40:05;97879.28;;;2.30
11926;BMP180;6022;48.768;18.608;2023-02-04T04:42:33;97886.66;;;2.33
11926;BMP180;6022;48.768;18.608;2023-02-04T04:45:00;97894.31;;;2.30
11926;BMP180;6022;48.768;18.608;2023-02-04T04:47:27;97893.41;;;2.31
11926;BMP180;6022;48.768;18.608;2023-02-04T04:49:54;97901.66;;;2.33
11926;BMP180;6022;48.768;18.608;2023-02-04T04:52:22;97910.94;;;2.31
11926;BMP180;6022;48.768;18.608;2023-02-04T04:54:50;97910.81;;;2.34
11926;BMP180;6022;48.768;18.608;2023-02-04T04:57:17;97915.69;;;2.37
11926;BMP180;6022;48.768;18.608;2023-02-04T04:59:44;97901.44;;;2.39
11926;BMP180;6022;48.768;18.608;2023-02-04T05:02:12;97903.25;;;2.36
11926;BMP180;6022;48.768;18.608;2023-02-04T05:04:39;97917.69;;;2.29
11926;BMP180;6022;48.768;18.608;2023-02-04T05:07:07;97908.44;;;2.31
11926;BMP180;6022;48.768;18.608;2023-02-04T05:09:35;97909.63;;;2.23
11926;BMP180;6022;48.768;18.608;2023-02-04T05:12:03;97913.69;;;2.25
11926;BMP180;6022;48.768;18.608;2023-02-04T05:14:30;97905.53;;;2.21
11926;BMP180;6022;48.768;18.608;2023-02-04T05:16:58;97903.78;;;2.23
11926;BMP180;6022;48.768;18.608;2023-02-04T05:19:25;97917.16;;;2.22
11926;BMP180;6022;48.768;18.608;2023-02-04T05:21:52;97931.47;;;2.18
11926;BMP180;6022;48.768;18.608;2023-02-04T05:24:20;97925.66;;;2.18
11926;BMP180;6022;48.768;18.608;2023-02-04T05:26:48;97937.28;;;2.19
11926;BMP180;6022;48.768;18.608;2023-02-04T05:29:15;97955.94;;;2.12
11926;BMP180;6022;48.768;18.608;2023-02-04T05:31:45;97955.38;;;2.04
11926;BMP180;6022;48.768;18.608;2023-02-04T05:34:12;97946.34;;;2.00
11926;BMP180;6022;48.768;18.608;2023-02-04T05:36:39;97934.03;;;1.95
11926;BMP180;6022;48.768;18.608;2023-02-04T05:39:07;97954.03;;;1.95
11926;BMP180;6022;48.768;18.608;2023-02-04T05:41:35;97958.34;;;1.92
11926;BMP180;6022;48.768;18.608;2023-02-04T05:44:03;97977.47;;;1.93
11926;BMP180;6022;48.768;18.608;2023-02-04T05:46:31;97982.59;;;1.90
11926;BMP180;6022;48.768;18.608;2023-02-04T05:48:59;97997.69;;;1.87
11926;BMP180;6022;48.768;18.608;2023-02-04T05:51:26;98006.94;;;1.85
11926;BMP180;6022;48.768;18.608;2023-02-04T05:53:54;98028.66;;;1.83
11926;BMP180;6022;48.768;18.608;2023-02-04T05:56:21;98037.09;;;1.81
11926;BMP180;6022;48.768;18.608;2023-02-04T05:58:48;98054.59;;;1.81
11926;BMP180;6022;48.768;18.608;2023-02-04T06:01:16;98062.28;;;1.76
11926;BMP180;6022;48.768;18.608;2023-02-04T06:03:43;98087.38;;;1.73
11926;BMP180;6022;48.768;18.608;2023-02-04T06:06:11;98092.63;;;1.66
11926;BMP180;6022;48.768;18.608;2023-02-04T06:08:38;98101.34;;;1.54
11926;BMP180;6022;48.768;18.608;2023-02-04T06:11:08;98096.56;;;1.49
11926;BMP180;6022;48.768;18.608;2023-02-04T06:13:38;98108.38;;;1.44
11926;BMP180;6022;48.768;18.608;2023-02-04T06:16:05;98110.31;;;1.36
11926;BMP180;6022;48.768;18.608;2023-02-04T06:18:33;98112.13;;;1.31
11926;BMP180;6022;48.768;18.608;2023-02-04T06:21:01;98105.47;;;1.31
11926;BMP180;6022;48.768;18.608;2023-02-04T06:23:31;98107.25;;;1.28
11926;BMP180;6022;48.768;18.608;2023-02-04T06:26:02;98112.13;;;1.31
11926;BMP180;6022;48.768;18.608;2023-02-04T06:28:29;98121.06;;;1.38
11926;BMP180;6022;48.768;18.608;2023-02-04T06:30:57;98123.56;;;1.38
11926;BMP180;6022;48.768;18.608;2023-02-04T06:33:24;98130.97;;;1.41
11926;BMP180;6022;48.768;18.608;2023-02-04T06:35:52;98161.72;;;1.43
11926;BMP180;6022;48.768;18.608;2023-02-04T06:38:19;98169.97;;;1.45
11926;BMP180;6022;48.768;18.608;2023-02-04T06:40:47;98189.25;;;1.41
11926;BMP180;6022;48.768;18.608;2023-02-04T06:43:20;98180.88;;;1.42
11926;BMP180;6022;48.768;18.608;2023-02-04T06:45:48;98221.94;;;1.35
11926;BMP180;6022;48.768;18.608;2023-02-04T06:48:17;98221.00;;;1.38
11926;BMP180;6022;48.768;18.608;2023-02-04T06:50:45;98250.13;;;1.39
11926;BMP180;6022;48.768;18.608;2023-02-04T06:53:13;98264.59;;;1.29
11926;BMP180;6022;48.768;18.608;2023-02-04T06:55:40;98270.47;;;1.27
11926;BMP180;6022;48.768;18.608;2023-02-04T06:58:08;98284.78;;;1.22
11926;BMP180;6022;48.768;18.608;2023-02-04T07:00:36;98290.13;;;1.10
11926;BMP180;6022;48.768;18.608;2023-02-04T07:03:03;98308.34;;;1.13
11926;BMP180;6022;48.768;18.608;2023-02-04T07:05:31;98312.59;;;1.10
11926;BMP180;6022;48.768;18.608;2023-02-04T07:07:59;98315.22;;;1.06
11926;BMP180;6022;48.768;18.608;2023-02-04T07:10:26;98327.56;;;1.10
11926;BMP180;6022;48.768;18.608;2023-02-04T07:12:57;98337.53;;;1.12
11926;BMP180;6022;48.768;18.608;2023-02-04T07:15:25;98339.22;;;1.11
11926;BMP180;6022;48.768;18.608;2023-02-04T07:17:52;98337.56;;;1.10
11926;BMP180;6022;48.768;18.608;2023-02-04T07:20:21;98337.66;;;1.07
11926;BMP180;6022;48.768;18.608;2023-02-04T07:22:49;98338.47;;;1.08
11926;BMP180;6022;48.768;18.608;2023-02-04T07:25:19;98337.38;;;1.16
11926;BMP180;6022;48.768;18.608;2023-02-04T07:27:47;98362.47;;;1.13
11926;BMP180;6022;48.768;18.608;2023-02-04T07:30:17;98342.69;;;1.06
11926;BMP180;6022;48.768;18.608;2023-02-04T07:32:45;98333.53;;;1.06
11926;BMP180;6022;48.768;18.608;2023-02-04T07:35:13;98342.66;;;1.07
11926;BMP180;6022;48.768;18.608;2023-02-04T07:37:40;98360.19;;;1.06
11926;BMP180;6022;48.768;18.608;2023-02-04T07:40:10;98361.16;;;1.00
11926;BMP180;6022;48.768;18.608;2023-02-04T07:42:38;98373.63;;;1.02
11926;BMP180;6022;48.768;18.608;2023-02-04T07:45:06;98390.59;;;0.89
11926;BMP180;6022;48.768;18.608;2023-02-04T07:47:34;98399.72;;;0.90
11926;BMP180;6022;48.768;18.608;2023-02-04T07:50:01;98411.28;;;0.93
11926;BMP180;6022;48.768;18.608;2023-02-04T07:52:29;98412.88;;;0.95
11926;BMP180;6022;48.768;18.608;2023-02-04T07:54:56;98425.44;;;0.94
11926;BMP180;6022;48.768;18.608;2023-02-04T07:57:24;98442.13;;;0.92
11926;BMP180;6022;48.768;18.608;2023-02-04T07:59:51;98452.94;;;0.92
11926;BMP180;6022;48.768;18.608;2023-02-04T08:02:18;98451.25;;;0.93
11926;BMP180;6022;48.768;18.608;2023-02-04T08:04:46;98456.22;;;0.94
11926;BMP180;6022;48.768;18.608;2023-02-04T08:07:13;98461.38;;;0.87
11926;BMP180;6022;48.768;18.608;2023-02-04T08:09:41;98467.19;;;0.87
11926;BMP180;6022;48.768;18.608;2023-02-04T08:12:11;98489.59;;;0.90
11926;BMP180;6022;48.768;18.608;2023-02-04T08:14:39;98472.59;;;1.04
11926;BMP180;6022;48.768;18.608;2023-02-04T08:17:09;98477.13;;;1.22
11926;BMP180;6022;48.768;18.608;2023-02-04T08:19:46;98499.31;;;1.01
11926;BMP180;6022;48.768;18.608;2023-02-04T08:22:14;98493.50;;;1.00
11926;BMP180;6022;48.768;18.608;2023-02-04T08:24:41;98489.00;;;0.81
11926;BMP180;6022;48.768;18.608;2023-02-04T08:27:10;98505.75;;;0.76
11926;BMP180;6022;48.768;18.608;2023-02-04T08:29:37;98511.56;;;0.76
11926;BMP180;6022;48.768;18.608;2023-02-04T08:32:05;98526.53;;;0.76
11926;BMP180;6022;48.768;18.608;2023-02-04T08:34:33;98546.63;;;0.72
11926;BMP180;6022;48.768;18.608;2023-02-04T08:37:00;98556.44;;;0.79
11926;BMP180;6022;48.768;18.608;2023-02-04T08:39:28;98583.72;;;0.87
11926;BMP180;6022;48.768;18.608;2023-02-04T08:41:57;98603.63;;;0.90
11926;BMP180;6022;48.768;18.608;2023-02-04T08:44:25;98608.69;;;0.87
11926;BMP180;6022;48.768;18.608;2023-02-04T08:46:59;98613.69;;;0.87
11926;BMP180;6022;48.768;18.608;2023-02-04T08:49:26;98622.00;;;0.87
11926;BMP180;6022;48.768;18.608;2023-02-04T08:51:56;98638.72;;;0.84
11926;BMP180;6022;48.768;18.608;2023-02-04T08:54:23;98636.19;;;0.85
11926;BMP180;6022;48.768;18.608;2023-02-04T08:56:52;98662.06;;;0.83
11926;BMP180;6022;48.768;18.608;2023-02-04T08:59:19;98665.47;;;0.79
11926;BMP180;6022;48.768;18.608;2023-02-04T09:01:49;98681.25;;;0.79
11926;BMP180;6022;48.768;18.608;2023-02-04T09:04:20;98703.59;;;0.85
11926;BMP180;6022;48.768;18.608;2023-02-04T09:06:49;98702.88;;;0.80
11926;BMP180;6022;48.768;18.608;2023-02-04T09:09:18;98717.91;;;0.77
11926;BMP180;6022;48.768;18.608;2023-02-04T09:11:48;98709.50;;;0.81
11926;BMP180;6022;48.768;18.608;2023-02-04T09:14:16;98721.22;;;0.79
11926;BMP180;6022;48.768;18.608;2023-02-04T09:16:43;98749.19;;;0.93
11926;BMP180;6022;48.768;18.608;2023-02-04T09:19:11;98757.38;;;1.01
11926;BMP180;6022;48.768;18.608;2023-02-04T09:21:43;98749.00;;;1.04
11926;BMP180;6022;48.768;18.608;2023-02-04T09:24:10;98763.16;;;1.03
11926;BMP180;6022;48.768;18.608;2023-02-04T09:26:37;98782.09;;;1.13
11926;BMP180;6022;48.768;18.608;2023-02-04T09:29:05;98786.91;;;1.22
11926;BMP180;6022;48.768;18.608;2023-02-04T09:31:32;98790.13;;;1.27
11926;BMP180;6022;48.768;18.608;2023-02-04T09:34:00;98802.72;;;1.22
11926;BMP180;6022;48.768;18.608;2023-02-04T09:36:27;98804.13;;;1.34
11926;BMP180;6022;48.768;18.608;2023-02-04T09:38:57;98828.84;;;1.46
11926;BMP180;6022;48.768;18.608;2023-02-04T09:41:24;98827.69;;;1.61
11926;BMP180;6022;48.768;18.608;2023-02-04T09:43:52;98844.28;;;1.64
11926;BMP180;6022;48.768;18.608;2023-02-04T09:46:23;98854.56;;;1.89
11926;BMP180;6022;48.768;18.608;2023-02-04T09:48:55;98855.78;;;2.08
11926;BMP180;6022;48.768;18.608;2023-02-04T09:51:32;98860.09;;;2.36
11926;BMP180;6022;48.768;18.608;2023-02-04T09:54:11;98862.41;;;2.44
11926;BMP180;6022;48.768;18.608;2023-02-04T09:56:40;98873.34;;;2.40
11926;BMP180;6022;48.768;18.608;2023-02-04T09:59:20;98866.19;;;1.90
11926;BMP180;6022;48.768;18.608;2023-02-04T10:01:59;98870.50;;;1.84
11926;BMP180;6022;48.768;18.608;2023-02-04T10:04:28;98889.75;;;1.81
11926;BMP180;6022;48.768;18.608;2023-02-04T10:06:56;98896.06;;;1.96
11926;BMP180;6022;48.768;18.608;2023-02-04T10:09:26;98910.59;;;1.81
11926;BMP180;6022;48.768;18.608;2023-02-04T10:11:54;98905.69;;;1.77
11926;BMP180;6022;48.768;18.608;2023-02-04T10:14:22;98920.81;;;2.10
11926;BMP180;6022;48.768;18.608;2023-02-04T10:16:55;98923.63;;;1.95
11926;BMP180;6022;48.768;18.608;2023-02-04T10:19:28;98939.75;;;1.82
11926;BMP180;6022;48.768;18.608;2023-02-04T10:21:57;98947.84;;;1.93
11926;BMP180;6022;48.768;18.608;2023-02-04T10:24:26;98963.06;;;2.22
11926;BMP180;6022;48.768;18.608;2023-02-04T10:27:09;98960.22;;;2.36
11926;BMP180;6022;48.768;18.608;2023-02-04T10:29:37;98955.00;;;2.45
11926;BMP180;6022;48.768;18.608;2023-02-04T10:32:32;98964.69;;;2.59
11926;BMP180;6022;48.768;18.608;2023-02-04T10:35:11;98944.06;;;2.82
11926;BMP180;6022;48.768;18.608;2023-02-04T10:37:38;98977.94;;;2.97
11926;BMP180;6022;48.768;18.608;2023-02-04T10:40:45;98988.22;;;3.19
11926;BMP180;6022;48.768;18.608;2023-02-04T10:43:17;98985.81;;;3.76
11926;BMP180;6022;48.768;18.608;2023-02-04T10:46:00;99020.03;;;3.49
11926;BMP180;6022;48.768;18.608;2023-02-04T10:48:29;99032.06;;;3.03
11926;BMP180;6022;48.768;18.608;2023-02-04T10:51:12;99040.19;;;2.78
11926;BMP180;6022;48.768;18.608;2023-02-04T10:53:53;99052.72;;;2.77
11926;BMP180;6022;48.768;18.608;2023-02-04T10:56:41;99068.06;;;2.26
11926;BMP180;6022;48.768;18.608;2023-02-04T10:59:22;99075.06;;;2.11
11926;BMP180;6022;48.768;18.608;2023-02-04T11:01:59;99074.91;;;2.18
11926;BMP180;6022;48.768;18.608;2023-02-04T11:04:28;99084.13;;;2.16
11926;BMP180;6022;48.768;18.608;2023-02-04T11:06:57;99088.38;;;2.13
11926;BMP180;6022;48.768;18.608;2023-02-04T11:09:51;99088.38;;;1.71
11926;BMP180;6022;48.768;18.608;2023-02-04T11:15:46;99107.50;;;2.15
11926;BMP180;6022;48.768;18.608;2023-02-04T11:18:45;99122.63;;;2.09
11926;BMP180;6022;48.768;18.608;2023-02-04T11:24:22;99128.50;;;2.49
11926;BMP180;6022;48.768;18.608;2023-02-04T11:29:45;99132.31;;;3.03
11926;BMP180;6022;48.768;18.608;2023-02-04T11:32:43;99136.53;;;3.01
11926;BMP180;6022;48.768;18.608;2023-02-04T11:37:42;99138.44;;;3.61
11926;BMP180;6022;48.768;18.608;2023-02-04T11:40:33;99144.22;;;3.95
11926;BMP180;6022;48.768;18.608;2023-02-04T11:43:14;99158.00;;;3.80
11926;BMP180;6022;48.768;18.608;2023-02-04T11:45:42;99160.50;;;3.13
11926;BMP180;6022;48.768;18.608;2023-02-04T11:48:19;99176.16;;;3.22
11926;BMP180;6022;48.768;18.608;2023-02-04T11:51:01;99190.47;;;2.80
11926;BMP180;6022;48.768;18.608;2023-02-04T11:53:32;99200.00;;;2.62
11926;BMP180;6022;48.768;18.608;2023-02-04T11:56:00;99204.88;;;2.69
11926;BMP180;6022;48.768;18.608;2023-02-04T11:58:29;99213.63;;;2.49
11926;BMP180;6022;48.768;18.608;2023-02-04T12:00:58;99213.75;;;2.43
11926;BMP180;6022;48.768;18.608;2023-02-04T12:03:31;99235.66;;;2.32
11926;BMP180;6022;48.768;18.608;2023-02-04T12:06:24;99247.97;;;1.96
11926;BMP180;6022;48.768;18.608;2023-02-04T12:08:51;99260.00;;;1.75
11926;BMP180;6022;48.768;18.608;2023-02-04T12:11:29;99265.00;;;1.76
11926;BMP180;6022;48.768;18.608;2023-02-04T12:14:06;99267.38;;;1.82
11926;BMP180;6022;48.768;18.608;2023-02-04T12:16:48;99269.66;;;1.97
11926;BMP180;6022;48.768;18.608;2023-02-04T12:19:17;99258.53;;;2.13
11926;BMP180;6022;48.768;18.608;2023-02-04T12:21:45;99273.13;;;1.87
11926;BMP180;6022;48.768;18.608;2023-02-04T12:24:13;99258.53;;;2.13
11926;BMP180;6022;48.768;18.608;2023-02-04T12:26:41;99265.78;;;2.26
11926;BMP180;6022;48.768;18.608;2023-02-04T12:29:08;99267.75;;;2.09
11926;BMP180;6022;48.768;18.608;2023-02-04T12:31:37;99264.44;;;2.09
11926;BMP180;6022;48.768;18.608;2023-02-04T12:34:06;99297.97;;;2.00
11926;BMP180;6022;48.768;18.608;2023-02-04T12:36:36;99277.16;;;1.97
11926;BMP180;6022;48.768;18.608;2023-02-04T12:39:04;99287.19;;;1.94
11926;BMP180;6022;48.768;18.608;2023-02-04T12:41:31;99280.09;;;2.20
11926;BMP180;6022;48.768;18.608;2023-02-04T12:43:59;99282.34;;;2.34
11926;BMP180;6022;48.768;18.608;2023-02-04T12:46:28;99291.81;;;2.18
11926;BMP180;6022;48.768;18.608;2023-02-04T12:48:56;99273.91;;;2.40
11926;BMP180;6022;48.768;18.608;2023-02-04T12:51:24;99287.25;;;2.40
11926;BMP180;6022;48.768;18.608;2023-02-04T12:53:51;99287.94;;;2.48
11926;BMP180;6022;48.768;18.608;2023-02-04T12:56:19;99304.66;;;2.46
11926;BMP180;6022;48.768;18.608;2023-02-04T12:58:46;99313.06;;;2.44
11926;BMP180;6022;48.768;18.608;2023-02-04T13:01:14;99328.00;;;2.47
11926;BMP180;6022;48.768;18.608;2023-02-04T13:03:42;99329.81;;;2.40
11926;BMP180;6022;48.768;18.608;2023-02-04T13:06:09;99334.69;;;2.46
11926;BMP180;6022;48.768;18.608;2023-02-04T13:08:37;99344.94;;;2.34
11926;BMP180;6022;48.768;18.608;2023-02-04T13:11:04;99337.53;;;2.28
11926;BMP180;6022;48.768;18.608;2023-02-04T13:13:32;99335.06;;;2.25
11926;BMP180;6022;48.768;18.608;2023-02-04T13:16:00;99344.81;;;2.40
11926;BMP180;6022;48.768;18.608;2023-02-04T13:18:28;99363.03;;;1.97
11926;BMP180;6022;48.768;18.608;2023-02-04T13:20:55;99362.69;;;1.64
11926;BMP180;6022;48.768;18.608;2023-02-04T13:23:23;99365.22;;;1.63
11926;BMP180;6022;48.768;18.608;2023-02-04T13:25:51;99371.66;;;1.77
11926;BMP180;6022;48.768;18.608;2023-02-04T13:28:18;99369.44;;;1.59
11926;BMP180;6022;48.768;18.608;2023-02-04T13:30:46;99373.53;;;1.65
11926;BMP180;6022;48.768;18.608;2023-02-04T13:33:16;99383.66;;;1.54
11926;BMP180;6022;48.768;18.608;2023-02-04T13:35:45;99387.47;;;1.79
11926;BMP180;6022;48.768;18.608;2023-02-04T13:38:12;99387.47;;;1.79
11926;BMP180;6022;48.768;18.608;2023-02-04T13:40:40;99401.75;;;1.74
11926;BMP180;6022;48.768;18.608;2023-02-04T13:43:08;99406.25;;;1.49
11926;BMP180;6022;48.768;18.608;2023-02-04T13:45:35;99402.13;;;1.46
11926;BMP180;6022;48.768;18.608;2023-02-04T13:48:03;99402.53;;;1.76
11926;BMP180;6022;48.768;18.608;2023-02-04T13:50:30;99402.41;;;1.85
11926;BMP180;6022;48.768;18.608;2023-02-04T13:52:58;99413.81;;;2.04
11926;BMP180;6022;48.768;18.608;2023-02-04T13:55:25;99419.47;;;2.18
11926;BMP180;6022;48.768;18.608;2023-02-04T13:57:54;99411.28;;;2.05
11926;BMP180;6022;48.768;18.608;2023-02-04T14:00:27;99437.56;;;1.76
11926;BMP180;6022;48.768;18.608;2023-02-04T14:02:54;99417.69;;;1.64
11926;BMP180;6022;48.768;18.608;2023-02-04T14:05:22;99425.25;;;1.63
11926;BMP180;6022;48.768;18.608;2023-02-04T14:07:52;99436.97;;;1.58
11926;BMP180;6022;48.768;18.608;2023-02-04T14:10:22;99438.53;;;1.65
11926;BMP180;6022;48.768;18.608;2023-02-04T14:12:51;99444.44;;;1.59
11926;BMP180;6022;48.768;18.608;2023-02-04T14:15:18;99434.28;;;1.71
11926;BMP180;6022;48.768;18.608;2023-02-04T14:17:46;99441.25;;;1.49
11926;BMP180;6022;48.768;18.608;2023-02-04T14:20:13;99437.75;;;1.61
11926;BMP180;6022;48.768;18.608;2023-02-04T14:22:41;99450.19;;;1.64
11926;BMP180;6022;48.768;18.608;2023-02-04T14:25:09;99439.22;;;1.76
11926;BMP180;6022;48.768;18.608;2023-02-04T14:27:36;99442.59;;;1.73
11926;BMP180;6022;48.768;18.608;2023-02-04T14:30:27;99440.81;;;1.80
11926;BMP180;6022;48.768;18.608;2023-02-04T14:32:56;99440.13;;;1.70
11926;BMP180;6022;48.768;18.608;2023-02-04T14:35:25;99442.84;;;1.55
11926;BMP180;6022;48.768;18.608;2023-02-04T14:37:52;99446.31;;;1.43
11926;BMP180;6022;48.768;18.608;2023-02-04T14:40:20;99449.63;;;1.42
11926;BMP180;6022;48.768;18.608;2023-02-04T14:42:47;99463.19;;;1.23
11926;BMP180;6022;48.768;18.608;2023-02-04T14:45:15;99483.16;;;1.23
11926;BMP180;6022;48.768;18.608;2023-02-04T14:47:42;99456.59;;;1.16
11926;BMP180;6022;48.768;18.608;2023-02-04T14:50:14;99455.81;;;1.13